Time;durP1;ratioP1;P1;durP2;ratioP2;P2;SDS_P1;SDS_P2;PMS_P1;PMS_P2;Temp;Humidity;BMP_temperature;BMP_pressure;BME280_temperature;BME280_humidity;BME280_pressure;Samples;Min_cycle;Max_cycle;Signal;HPM_P1;HPM_P2
2024/01/23 05:08:33;;;;;;;0.35;0.35;;;8.00;99.90;;;;;;4959051;29;20208;-69
2024/01/23 05:10:59;;;;;;;0.40;0.40;;;7.90;99.90;;;;;;4958536;29;20642;-71
2024/01/23 05:13:24;;;;;;;0.30;0.30;;;7.90;99.90;;;;;;4959911;29;20549;-70
2024/01/23 05:15:50;;;;;;;0.30;0.30;;;7.90;99.90;;;;;;4963164;29;20192;-70
2024/01/23 05:18:16;;;;;;;0.30;0.30;;;7.90;99.90;;;;;;4962891;29;20183;-70
2024/01/23 05:20:41;;;;;;;0.30;0.30;;;7.90;99.90;;;;;;4965446;29;20169;-71
2024/01/23 05:23:07;;;;;;;0.30;0.30;;;7.90;99.90;;;;;;4962417;29;20259;-71
2024/01/23 05:25:33;;;;;;;0.30;0.30;;;7.80;99.90;;;;;;4960212;29;20208;-70
2024/01/23 05:27:58;;;;;;;0.40;0.40;;;7.80;99.90;;;;;;4961079;28;20165;-71
2024/01/23 05:30:24;;;;;;;0.30;0.30;;;7.80;99.90;;;;;;4960643;29;20255;-70
2024/01/23 05:32:50;;;;;;;0.30;0.30;;;7.80;99.90;;;;;;4957519;29;20196;-72
2024/01/23 05:35:16;;;;;;;0.40;0.40;;;7.80;99.90;;;;;;4957246;29;20239;-69
2024/01/23 05:37:42;;;;;;;0.30;0.30;;;7.80;99.90;;;;;;4958237;28;20197;-70
2024/01/23 05:40:12;;;;;;;0.30;0.30;;;7.80;99.90;;;;;;4958350;28;20226;-72
2024/01/23 05:42:38;;;;;;;0.30;0.30;;;7.80;99.90;;;;;;4959076;28;20436;-71
2024/01/23 05:45:04;;;;;;;0.40;0.40;;;7.80;99.90;;;;;;4959635;28;20176;-70
2024/01/23 05:47:30;;;;;;;0.30;0.30;;;7.80;99.90;;;;;;4959270;29;20200;-71
2024/01/23 05:49:56;;;;;;;0.30;0.30;;;7.70;99.90;;;;;;4961140;29;20635;-71
2024/01/23 05:52:22;;;;;;;0.40;0.40;;;7.70;99.90;;;;;;4960644;29;20844;-72
2024/01/23 05:54:47;;;;;;;0.30;0.30;;;7.70;99.90;;;;;;4958766;29;20197;-71
2024/01/23 05:57:14;;;;;;;0.47;0.47;;;7.60;99.90;;;;;;4957975;29;20191;-72
2024/01/23 05:59:40;;;;;;;0.50;0.50;;;7.60;99.90;;;;;;4957727;28;20505;-71
2024/01/23 06:02:06;;;;;;;0.30;0.30;;;7.60;99.90;;;;;;4957951;28;20173;-69
2024/01/23 06:04:32;;;;;;;0.30;0.30;;;7.60;99.90;;;;;;4956179;29;20532;-69
2024/01/23 06:06:58;;;;;;;0.40;0.40;;;7.60;99.90;;;;;;4957696;29;20208;-72
2024/01/23 06:09:24;;;;;;;0.32;0.32;;;7.60;99.90;;;;;;4957843;28;20173;-71
2024/01/23 06:11:51;;;;;;;0.40;0.40;;;7.60;99.90;;;;;;4957514;29;20251;-71
2024/01/23 06:14:17;;;;;;;0.40;0.40;;;7.50;99.90;;;;;;4955527;28;20204;-72
2024/01/23 06:16:42;;;;;;;0.30;0.30;;;7.40;99.90;;;;;;4957551;29;20196;-70
2024/01/23 06:19:11;;;;;;;0.30;0.30;;;7.40;99.90;;;;;;4957277;29;20181;-71
2024/01/23 06:21:38;;;;;;;0.30;0.30;;;7.30;99.90;;;;;;4957132;29;20177;-70
2024/01/23 06:24:04;;;;;;;0.30;0.30;;;7.20;99.90;;;;;;4957274;28;20172;-70
2024/01/23 06:26:31;;;;;;;0.30;0.30;;;7.20;99.90;;;;;;4956738;29;20220;-69
2024/01/23 06:28:57;;;;;;;0.40;0.40;;;7.20;99.90;;;;;;4955885;29;20187;-71
2024/01/23 06:31:25;;;;;;;0.37;0.37;;;7.20;99.90;;;;;;4957634;29;20169;-70
2024/01/23 06:33:52;;;;;;;0.30;0.30;;;7.20;99.90;;;;;;4957338;28;20203;-72
2024/01/23 06:36:17;;;;;;;0.30;0.30;;;7.20;99.90;;;;;;4957004;28;20218;-71
2024/01/23 06:38:43;;;;;;;0.30;0.30;;;7.20;99.90;;;;;;4957142;29;20204;-70
2024/01/23 06:41:09;;;;;;;0.30;0.30;;;7.20;99.90;;;;;;4956704;28;20543;-71
2024/01/23 06:43:35;;;;;;;0.30;0.30;;;7.20;99.90;;;;;;4956923;29;20405;-70
2024/01/23 06:46:03;;;;;;;0.30;0.30;;;7.20;99.90;;;;;;4956573;29;20224;-70
2024/01/23 06:48:30;;;;;;;0.35;0.35;;;7.20;99.90;;;;;;4956768;29;20188;-72
2024/01/23 06:50:56;;;;;;;0.50;0.50;;;7.30;99.90;;;;;;4956812;28;20181;-71
2024/01/23 06:53:22;;;;;;;0.33;0.33;;;7.30;99.90;;;;;;4956580;28;20642;-72
2024/01/23 06:55:47;;;;;;;0.30;0.30;;;7.30;99.90;;;;;;4955903;29;20474;-72
2024/01/23 06:58:13;;;;;;;0.30;0.30;;;7.20;99.90;;;;;;4956579;29;20172;-71
2024/01/23 07:00:39;;;;;;;0.30;0.30;;;7.10;99.90;;;;;;4956421;29;20408;-71
2024/01/23 07:03:08;;;;;;;0.30;0.30;;;7.10;99.90;;;;;;4956706;28;20634;-72
2024/01/23 07:05:34;;;;;;;0.40;0.40;;;7.00;99.90;;;;;;4956061;28;20184;-72
2024/01/23 07:08:00;;;;;;;0.40;0.40;;;6.90;99.90;;;;;;4956293;28;20196;-71
2024/01/23 07:10:25;;;;;;;0.30;0.30;;;6.80;99.90;;;;;;4956156;29;20177;-70
2024/01/23 07:12:51;;;;;;;0.30;0.30;;;6.80;99.90;;;;;;4956150;29;20259;-71
2024/01/23 07:15:16;;;;;;;0.30;0.30;;;6.70;99.90;;;;;;4954135;29;20211;-72
2024/01/23 07:17:42;;;;;;;0.30;0.30;;;6.70;99.90;;;;;;4955626;29;20638;-71
2024/01/23 07:20:10;;;;;;;0.30;0.30;;;6.60;99.90;;;;;;4956804;29;20182;-71
2024/01/23 07:22:35;;;;;;;0.38;0.38;;;6.60;99.90;;;;;;4956094;28;20175;-72
2024/01/23 07:25:03;;;;;;;0.30;0.30;;;6.60;99.90;;;;;;4954795;28;20181;-71
2024/01/23 07:27:29;;;;;;;0.30;0.30;;;6.60;99.90;;;;;;4956180;28;20176;-71
2024/01/23 07:30:20;;;;;;;0.30;0.30;;;6.60;99.90;;;;;;4956155;28;20340;-70
2024/01/23 07:32:45;;;;;;;0.40;0.40;;;6.50;99.90;;;;;;4955878;28;20181;-72
2024/01/23 07:35:11;;;;;;;0.30;0.30;;;6.60;99.90;;;;;;4954204;29;20225;-71
2024/01/23 07:37:37;;;;;;;0.30;0.30;;;6.70;99.90;;;;;;4956233;28;20198;-70
2024/01/23 07:40:03;;;;;;;0.30;0.30;;;6.90;99.90;;;;;;4955929;29;20183;-71
2024/01/23 07:42:28;;;;;;;0.30;0.20;;;7.00;99.90;;;;;;4955799;28;20248;-71
2024/01/23 07:44:54;;;;;;;0.50;0.50;;;7.10;99.90;;;;;;4953916;29;20267;-73
2024/01/23 07:47:19;;;;;;;0.30;0.30;;;7.30;99.90;;;;;;4955541;29;20184;-72
2024/01/23 07:49:45;;;;;;;0.40;0.40;;;7.60;99.90;;;;;;4955634;29;20176;-72
2024/01/23 07:52:11;;;;;;;0.30;0.30;;;7.90;99.90;;;;;;4956034;29;20529;-72
2024/01/23 07:54:36;;;;;;;0.33;0.33;;;8.40;99.90;;;;;;4954966;29;20279;-71
2024/01/23 07:57:02;;;;;;;0.30;0.30;;;8.70;99.90;;;;;;4955374;29;20667;-71
2024/01/23 07:59:27;;;;;;;0.30;0.20;;;9.10;99.90;;;;;;4954414;29;20551;-71
2024/01/23 08:01:58;;;;;;;0.37;0.37;;;9.30;99.90;;;;;;4958741;29;20200;-71
2024/01/23 08:04:24;;;;;;;0.30;0.30;;;9.60;99.90;;;;;;4955958;28;20181;-71
2024/01/23 08:06:50;;;;;;;0.30;0.30;;;10.00;99.90;;;;;;4955209;29;20967;-70
2024/01/23 08:09:15;;;;;;;0.33;0.33;;;10.00;99.90;;;;;;4955035;28;20187;-70
2024/01/23 08:11:41;;;;;;;0.40;0.40;;;10.00;99.90;;;;;;4954980;29;20633;-71
2024/01/23 08:14:07;;;;;;;0.30;0.20;;;9.90;99.90;;;;;;4954845;28;20222;-70
2024/01/23 08:16:32;;;;;;;0.30;0.30;;;9.70;99.90;;;;;;4954580;29;20194;-70
2024/01/23 08:19:02;;;;;;;0.30;0.30;;;9.50;99.90;;;;;;4954802;29;20213;-71
2024/01/23 08:21:28;;;;;;;0.30;0.30;;;9.20;99.90;;;;;;4954847;28;20183;-71
2024/01/23 08:23:53;;;;;;;0.30;0.30;;;9.00;99.90;;;;;;4954987;28;20484;-71
2024/01/23 08:26:19;;;;;;;0.30;0.30;;;8.70;99.90;;;;;;4953275;29;20531;-71
2024/01/23 08:28:45;;;;;;;0.30;0.30;;;8.50;99.90;;;;;;4955088;29;20185;-70
2024/01/23 08:31:11;;;;;;;0.30;0.30;;;8.60;99.90;;;;;;4954780;29;20573;-70
2024/01/23 08:33:39;;;;;;;0.30;0.30;;;8.90;99.90;;;;;;4953377;29;20384;-71
2024/01/23 08:36:05;;;;;;;0.30;0.20;;;9.40;99.90;;;;;;4953099;28;20195;-71
2024/01/23 08:38:30;;;;;;;0.30;0.20;;;10.10;99.90;;;;;;4958815;28;20418;-72
2024/01/23 08:40:56;;;;;;;0.30;0.30;;;10.50;99.90;;;;;;4958763;29;20399;-73
2024/01/23 08:43:22;;;;;;;0.30;0.30;;;11.00;99.90;;;;;;4958488;29;20172;-72
2024/01/23 08:45:48;;;;;;;0.30;0.30;;;11.50;99.90;;;;;;4957126;29;20670;-73
2024/01/23 08:48:14;;;;;;;0.30;0.30;;;11.90;99.90;;;;;;4958765;28;20252;-73
2024/01/23 08:50:40;;;;;;;0.30;0.20;;;12.10;99.90;;;;;;4957229;29;20890;-72
2024/01/23 08:53:06;;;;;;;0.30;0.20;;;12.40;99.90;;;;;;4958685;28;20196;-73
2024/01/23 08:55:31;;;;;;;0.30;0.20;;;12.70;99.90;;;;;;4958382;28;20474;-72
2024/01/23 08:57:57;;;;;;;0.30;0.30;;;12.90;99.90;;;;;;4958678;29;20163;-72
2024/01/23 09:00:23;;;;;;;0.30;0.30;;;13.00;99.90;;;;;;4958255;28;20172;-74
2024/01/23 09:02:48;;;;;;;0.30;0.27;;;12.90;99.90;;;;;;4958517;29;20203;-71
2024/01/23 09:05:14;;;;;;;0.30;0.20;;;12.70;99.90;;;;;;4958034;29;20659;-72
2024/01/23 09:07:39;;;;;;;0.30;0.20;;;12.30;99.90;;;;;;4958158;29;20226;-73
2024/01/23 09:10:06;;;;;;;0.30;0.30;;;11.90;99.90;;;;;;4958178;29;20178;-71
2024/01/23 09:12:33;;;;;;;0.30;0.20;;;11.50;99.90;;;;;;4958283;28;20524;-72
2024/01/23 09:14:59;;;;;;;0.30;0.20;;;11.20;99.90;;;;;;4957851;28;20482;-72
2024/01/23 09:17:25;;;;;;;0.30;0.20;;;11.00;99.90;;;;;;4956727;29;20427;-72
2024/01/23 09:19:51;;;;;;;0.30;0.20;;;11.00;99.90;;;;;;4958070;29;20405;-73
2024/01/23 09:22:16;;;;;;;0.30;0.30;;;11.00;99.90;;;;;;4957965;29;20169;-72
2024/01/23 09:24:42;;;;;;;0.30;0.20;;;11.10;99.90;;;;;;4956522;29;20251;-71
2024/01/23 09:27:08;;;;;;;0.30;0.27;;;11.00;99.90;;;;;;4958108;29;20590;-71
2024/01/23 09:29:33;;;;;;;0.30;0.20;;;10.90;99.90;;;;;;4956865;29;20203;-70
2024/01/23 09:31:59;;;;;;;0.30;0.20;;;10.60;99.90;;;;;;4956703;29;20266;-70
2024/01/23 09:34:25;;;;;;;0.30;0.30;;;10.30;99.90;;;;;;4957812;28;20294;-70
2024/01/23 09:36:51;;;;;;;0.30;0.27;;;10.20;99.90;;;;;;4957632;29;20426;-71
2024/01/23 09:39:17;;;;;;;0.40;0.40;;;9.90;99.90;;;;;;4957720;29;20202;-71
2024/01/23 09:41:50;;;;;;;0.30;0.30;;;9.70;99.90;;;;;;4956540;29;20214;-71
2024/01/23 09:44:19;;;;;;;0.30;0.20;;;9.50;99.90;;;;;;4957829;28;20397;-71
2024/01/23 09:46:45;;;;;;;0.30;0.30;;;9.40;99.90;;;;;;4957447;28;20497;-71
2024/01/23 09:49:11;;;;;;;0.30;0.30;;;9.30;99.90;;;;;;4956935;28;20386;-71
2024/01/23 09:51:42;;;;;;;0.30;0.30;;;9.20;99.90;;;;;;4957576;28;20409;-72
2024/01/23 09:54:10;;;;;;;0.30;0.30;;;9.10;99.90;;;;;;4957445;28;20220;-71
2024/01/23 09:56:36;;;;;;;0.30;0.30;;;9.00;99.90;;;;;;4957184;28;20208;-72
2024/01/23 09:59:03;;;;;;;0.30;0.30;;;8.90;99.90;;;;;;4957288;29;20182;-71
2024/01/23 10:01:29;;;;;;;0.30;0.30;;;8.90;99.90;;;;;;4955989;29;20180;-71
2024/01/23 10:03:57;;;;;;;0.30;0.30;;;8.90;99.90;;;;;;4957193;29;20181;-72
2024/01/23 10:06:24;;;;;;;0.30;0.30;;;8.90;99.90;;;;;;4955394;29;20221;-70
2024/01/23 10:08:49;;;;;;;0.30;0.20;;;9.00;99.90;;;;;;4957484;28;20185;-71
2024/01/23 10:11:15;;;;;;;0.30;0.30;;;9.00;99.90;;;;;;4957511;29;20479;-70
2024/01/23 10:13:42;;;;;;;0.30;0.30;;;9.10;99.90;;;;;;4954752;29;20281;-70
2024/01/23 10:16:09;;;;;;;0.30;0.30;;;9.20;99.90;;;;;;4954705;29;20201;-71
2024/01/23 10:18:35;;;;;;;0.30;0.30;;;9.60;99.90;;;;;;4955044;29;20597;-71
2024/01/23 10:21:00;;;;;;;0.30;0.20;;;10.00;99.90;;;;;;4955080;29;20510;-72
2024/01/23 10:23:29;;;;;;;0.30;0.30;;;10.80;99.90;;;;;;4954897;29;20181;-72
2024/01/23 10:25:58;;;;;;;0.30;0.30;;;11.50;99.90;;;;;;4954400;29;20621;-74
2024/01/23 10:28:24;;;;;;;0.30;0.30;;;12.30;99.90;;;;;;4955250;29;20383;-72
2024/01/23 10:30:50;;;;;;;0.30;0.30;;;12.60;99.90;;;;;;4954903;28;20420;-73
2024/01/23 10:33:16;;;;;;;0.30;0.20;;;12.90;99.90;;;;;;4954583;29;20552;-74
2024/01/23 10:35:42;;;;;;;0.30;0.30;;;13.00;99.90;;;;;;4954306;28;20202;-71
2024/01/23 10:38:13;;;;;;;0.30;0.30;;;13.30;99.90;;;;;;4954592;29;20451;-71
2024/01/23 10:40:39;;;;;;;0.30;0.30;;;13.70;99.90;;;;;;4954758;29;20789;-74
2024/01/23 10:43:06;;;;;;;0.30;0.20;;;14.00;99.90;;;;;;4954489;29;20417;-73
2024/01/23 10:45:32;;;;;;;0.30;0.20;;;14.30;99.90;;;;;;4955790;29;20511;-73
2024/01/23 10:48:00;;;;;;;0.30;0.30;;;14.70;99.50;;;;;;4955102;29;20407;-73
2024/01/23 10:50:29;;;;;;;0.30;0.30;;;14.80;99.00;;;;;;4956509;28;20184;-71
2024/01/23 10:53:01;;;;;;;0.30;0.30;;;14.70;98.00;;;;;;4956368;28;20770;-73
2024/01/23 10:55:28;;;;;;;0.30;0.20;;;14.20;97.90;;;;;;4956831;28;20435;-74
2024/01/23 10:57:59;;;;;;;0.30;0.20;;;13.50;98.90;;;;;;4955344;28;20859;-73
2024/01/23 11:00:26;;;;;;;0.30;0.27;;;13.10;99.50;;;;;;4954466;28;20508;-73
2024/01/23 11:03:05;;;;;;;0.30;0.20;;;12.60;99.90;;;;;;4955068;28;20833;-72
2024/01/23 11:06:05;;;;;;;0.30;0.20;;;12.40;99.90;;;;;;4958960;28;20437;-70
2024/01/23 11:08:36;;;;;;;0.30;0.30;;;12.10;99.90;;;;;;4936400;29;20536;-71
2024/01/23 11:11:22;;;;;;;0.30;0.30;;;11.80;99.90;;;;;;4972930;28;20412;-73
2024/01/23 11:13:57;;;;;;;0.40;0.40;;;11.60;99.90;;;;;;4970343;28;20434;-72
2024/01/23 11:16:23;;;;;;;0.30;0.30;;;11.50;99.90;;;;;;4974550;28;20393;-73
2024/01/23 11:18:53;;;;;;;0.30;0.30;;;11.40;99.90;;;;;;4975278;28;20426;-72
2024/01/23 11:21:22;;;;;;;0.30;0.30;;;11.30;99.90;;;;;;4975111;28;20262;-74
2024/01/23 11:24:02;;;;;;;0.50;0.50;;;11.20;99.90;;;;;;4974013;28;20401;-74
2024/01/23 11:26:30;;;;;;;0.30;0.20;;;11.10;99.90;;;;;;4974123;28;20556;-72
2024/01/23 11:29:00;;;;;;;0.30;0.20;;;11.10;99.90;;;;;;4974594;28;20419;-71
2024/01/23 11:31:28;;;;;;;0.30;0.30;;;11.10;99.90;;;;;;4975123;28;20489;-70
2024/01/23 11:34:22;;;;;;;0.30;0.30;;;11.10;99.90;;;;;;4975198;28;20421;-72
2024/01/23 11:36:49;;;;;;;0.30;0.30;;;11.10;99.90;;;;;;4974853;28;20431;-72
2024/01/23 11:39:18;;;;;;;0.30;0.30;;;10.80;99.90;;;;;;4974811;28;20402;-71
2024/01/23 11:41:51;;;;;;;0.30;0.30;;;10.60;99.90;;;;;;4956887;28;20769;-73
2024/01/23 11:44:18;;;;;;;0.30;0.30;;;10.40;99.90;;;;;;4953832;29;20750;-75
2024/01/23 11:46:47;;;;;;;0.30;0.30;;;10.30;99.90;;;;;;4955364;28;20405;-72
2024/01/23 11:49:14;;;;;;;0.30;0.30;;;10.20;99.90;;;;;;4955768;28;20411;-71
2024/01/23 11:51:40;;;;;;;0.30;0.30;;;10.10;99.90;;;;;;4955536;29;20602;-72
2024/01/23 11:54:10;;;;;;;0.30;0.20;;;10.10;99.90;;;;;;4955147;28;20273;-72
2024/01/23 11:56:36;;;;;;;0.30;0.30;;;10.10;99.90;;;;;;4955086;28;20229;-72
2024/01/23 11:59:02;;;;;;;0.30;0.30;;;10.00;99.90;;;;;;4955549;28;20170;-71
2024/01/23 12:01:30;;;;;;;0.30;0.30;;;10.10;99.90;;;;;;4955716;29;20257;-71
2024/01/23 12:03:56;;;;;;;0.40;0.40;;;10.10;99.90;;;;;;4954193;29;20239;-71
2024/01/23 12:06:25;;;;;;;0.32;0.32;;;10.20;99.90;;;;;;4954703;28;20533;-72
2024/01/23 12:08:51;;;;;;;0.30;0.30;;;10.30;99.90;;;;;;4955580;28;20182;-72
2024/01/23 12:11:18;;;;;;;0.30;0.20;;;10.40;99.90;;;;;;4973135;28;20237;-71
2024/01/23 12:13:45;;;;;;;0.30;0.30;;;10.50;99.90;;;;;;4973282;28;20263;-73
2024/01/23 12:16:10;;;;;;;0.30;0.30;;;10.60;99.80;;;;;;4974126;28;20658;-73
2024/01/23 12:18:36;;;;;;;0.33;0.33;;;10.50;99.70;;;;;;4974493;28;20521;-72
2024/01/23 12:21:04;;;;;;;0.30;0.30;;;10.50;99.80;;;;;;4974677;28;20405;-71
2024/01/23 12:23:30;;;;;;;0.30;0.20;;;10.50;99.70;;;;;;4974475;28;20408;-73
2024/01/23 12:25:57;;;;;;;0.30;0.30;;;10.40;99.80;;;;;;4972353;28;20487;-72
2024/01/23 12:28:23;;;;;;;0.30;0.20;;;10.40;99.90;;;;;;4974227;28;20405;-71
2024/01/23 12:30:49;;;;;;;0.30;0.30;;;10.40;99.90;;;;;;4973418;28;20644;-71
2024/01/23 12:33:18;;;;;;;0.30;0.30;;;10.40;99.90;;;;;;4974647;28;20406;-72
2024/01/23 12:35:44;;;;;;;0.30;0.20;;;10.40;99.90;;;;;;4969278;28;20959;-74
2024/01/23 12:38:20;;;;;;;0.30;0.30;;;10.40;99.90;;;;;;4955071;28;20179;-71
2024/01/23 12:40:46;;;;;;;0.30;0.30;;;10.50;99.90;;;;;;4955284;28;20215;-71
2024/01/23 12:43:14;;;;;;;0.30;0.30;;;10.50;99.90;;;;;;4953785;29;20264;-70
2024/01/23 12:45:39;;;;;;;0.30;0.30;;;10.50;99.90;;;;;;4955033;28;20442;-71
2024/01/23 12:48:06;;;;;;;0.37;0.37;;;10.50;99.90;;;;;;4955684;29;20182;-72
2024/01/23 12:50:32;;;;;;;0.50;0.50;;;10.60;99.90;;;;;;4956819;28;20173;-72
2024/01/23 12:52:59;;;;;;;0.30;0.30;;;10.60;99.90;;;;;;4955250;29;20559;-73
2024/01/23 12:55:28;;;;;;;0.30;0.30;;;10.50;99.90;;;;;;4954912;28;20219;-72
2024/01/23 12:57:53;;;;;;;0.30;0.30;;;10.50;99.90;;;;;;4955536;28;20508;-70
2024/01/23 13:00:20;;;;;;;0.30;0.20;;;10.50;99.90;;;;;;4971022;28;20464;-71
2024/01/23 13:02:46;;;;;;;0.30;0.30;;;10.50;99.90;;;;;;4974684;28;20174;-70
2024/01/23 13:05:12;;;;;;;0.30;0.30;;;10.50;99.90;;;;;;4972819;28;20183;-72
2024/01/23 13:07:41;;;;;;;0.30;0.30;;;10.50;99.90;;;;;;4974120;28;20196;-71
2024/01/23 13:10:11;;;;;;;0.30;0.30;;;10.50;99.90;;;;;;4974764;28;20181;-73
2024/01/23 13:12:37;;;;;;;0.30;0.30;;;10.50;99.90;;;;;;4974254;28;20170;-71
2024/01/23 13:15:04;;;;;;;0.30;0.30;;;10.50;99.90;;;;;;4957415;28;20240;-71
2024/01/23 13:17:31;;;;;;;0.30;0.30;;;10.40;99.90;;;;;;4954537;28;20645;-70
2024/01/23 13:20:00;;;;;;;0.40;0.40;;;10.30;99.90;;;;;;4954805;28;20588;-71
2024/01/23 13:22:26;;;;;;;0.30;0.30;;;10.30;99.90;;;;;;4954722;28;20982;-70
2024/01/23 13:24:51;;;;;;;0.30;0.30;;;10.20;99.90;;;;;;4956955;28;20430;-71
2024/01/23 13:27:17;;;;;;;0.43;0.43;;;10.10;99.90;;;;;;4957906;29;20580;-72
2024/01/23 13:29:44;;;;;;;0.40;0.40;;;10.00;99.90;;;;;;4972727;28;20606;-70
2024/01/23 13:32:10;;;;;;;0.30;0.20;;;10.00;99.90;;;;;;4977659;28;20196;-69
2024/01/23 13:34:37;;;;;;;0.30;0.30;;;10.00;99.90;;;;;;4975673;28;20261;-71
2024/01/23 13:37:04;;;;;;;0.30;0.30;;;10.00;99.90;;;;;;4976902;28;20416;-72
2024/01/23 13:39:30;;;;;;;0.30;0.30;;;10.00;99.90;;;;;;4977206;28;20174;-70
2024/01/23 13:41:57;;;;;;;0.30;0.30;;;10.00;99.90;;;;;;4970522;28;20303;-72
2024/01/23 13:44:22;;;;;;;0.30;0.20;;;10.00;99.90;;;;;;4956155;28;20172;-71
2024/01/23 13:46:48;;;;;;;0.30;0.30;;;10.00;99.90;;;;;;4955984;29;20197;-71
2024/01/23 13:49:14;;;;;;;0.30;0.30;;;10.00;99.90;;;;;;4957293;29;20776;-71
2024/01/23 13:51:40;;;;;;;0.30;0.20;;;10.00;99.90;;;;;;4957305;29;20254;-72
2024/01/23 13:54:06;;;;;;;0.30;0.30;;;10.00;99.90;;;;;;4956603;28;20660;-71
2024/01/23 13:56:35;;;;;;;0.30;0.30;;;10.00;99.90;;;;;;4956709;28;20198;-70
2024/01/23 13:59:04;;;;;;;0.30;0.30;;;10.00;99.90;;;;;;4955743;28;20268;-71
2024/01/23 14:01:34;;;;;;;0.30;0.30;;;10.00;99.90;;;;;;4956543;29;20240;-69
2024/01/23 14:04:03;;;;;;;0.30;0.30;;;10.00;99.90;;;;;;4959168;28;20178;-69
2024/01/23 14:06:29;;;;;;;0.30;0.20;;;10.00;99.90;;;;;;4956278;28;20571;-68
2024/01/23 14:08:56;;;;;;;0.30;0.23;;;10.00;99.90;;;;;;4956421;29;20177;-68
2024/01/23 14:11:22;;;;;;;0.30;0.30;;;9.90;99.90;;;;;;4952755;29;20175;-67
2024/01/23 14:13:48;;;;;;;0.30;0.30;;;9.80;99.90;;;;;;4957640;28;20205;-69
2024/01/23 14:16:14;;;;;;;0.30;0.30;;;9.70;99.90;;;;;;4958135;29;20196;-70
2024/01/23 14:18:41;;;;;;;0.30;0.30;;;9.70;99.90;;;;;;4958071;29;20413;-70
2024/01/23 14:21:11;;;;;;;0.30;0.30;;;9.70;99.90;;;;;;4956914;29;20177;-70
2024/01/23 14:23:37;;;;;;;0.30;0.30;;;9.60;99.90;;;;;;4958073;28;20171;-71
2024/01/23 14:26:03;;;;;;;0.30;0.30;;;9.60;99.90;;;;;;4953888;29;20219;-71
2024/01/23 14:28:28;;;;;;;0.33;0.33;;;9.60;99.90;;;;;;4959098;28;20170;-69
2024/01/23 14:30:54;;;;;;;0.30;0.30;;;9.60;99.90;;;;;;4956262;29;20177;-69
2024/01/23 14:33:22;;;;;;;0.30;0.30;;;9.60;99.90;;;;;;4955153;29;20184;-67
2024/01/23 14:35:48;;;;;;;0.30;0.30;;;9.50;99.90;;;;;;4956289;28;20204;-68
2024/01/23 14:38:13;;;;;;;0.30;0.30;;;9.50;99.90;;;;;;4955651;29;20173;-70
2024/01/23 14:40:39;;;;;;;0.30;0.30;;;9.50;99.90;;;;;;4955268;29;20795;-69
2024/01/23 14:43:06;;;;;;;0.30;0.30;;;9.50;99.90;;;;;;4956964;28;20180;-68
2024/01/23 14:45:33;;;;;;;0.30;0.30;;;9.40;99.90;;;;;;4955996;28;20200;-70
2024/01/23 14:47:58;;;;;;;0.30;0.30;;;9.50;99.90;;;;;;4956586;28;20184;-69
2024/01/23 14:50:24;;;;;;;0.40;0.40;;;9.50;99.90;;;;;;4956527;29;20208;-69
2024/01/23 14:52:50;;;;;;;0.30;0.30;;;9.50;99.90;;;;;;4956500;29;20181;-68
2024/01/23 14:55:15;;;;;;;0.30;0.30;;;9.50;99.90;;;;;;4954559;29;20236;-68
2024/01/23 14:57:44;;;;;;;0.30;0.30;;;9.40;99.90;;;;;;4956287;28;20224;-69
2024/01/23 15:00:12;;;;;;;0.30;0.30;;;9.40;99.90;;;;;;4971168;28;20181;-68
2024/01/23 15:02:38;;;;;;;0.30;0.30;;;9.40;99.90;;;;;;4975245;28;20220;-70
2024/01/23 15:05:08;;;;;;;0.30;0.30;;;9.40;99.90;;;;;;4959633;28;20563;-70
2024/01/23 15:07:36;;;;;;;0.30;0.30;;;9.30;99.90;;;;;;4954661;29;20540;-68
2024/01/23 15:10:02;;;;;;;0.30;0.30;;;9.30;99.90;;;;;;4970273;28;20729;-69
2024/01/23 15:12:28;;;;;;;0.30;0.30;;;9.30;99.90;;;;;;4975693;28;20180;-67
2024/01/23 15:14:53;;;;;;;0.30;0.30;;;9.30;99.90;;;;;;4974891;28;20211;-69
2024/01/23 15:17:19;;;;;;;0.30;0.30;;;9.30;99.90;;;;;;4975327;28;20172;-69
2024/01/23 15:19:46;;;;;;;0.30;0.20;;;9.30;99.90;;;;;;4975128;28;20197;-69
2024/01/23 15:22:12;;;;;;;0.30;0.30;;;9.30;99.90;;;;;;4973938;28;20183;-68
2024/01/23 15:24:37;;;;;;;0.30;0.30;;;9.30;99.90;;;;;;4974042;28;20193;-67
2024/01/23 15:27:03;;;;;;;0.30;0.30;;;9.20;99.90;;;;;;4974034;28;20198;-69
2024/01/23 15:29:29;;;;;;;0.30;0.30;;;9.20;99.90;;;;;;4974190;28;20567;-69
2024/01/23 15:31:55;;;;;;;0.30;0.30;;;9.20;99.90;;;;;;4975027;28;20180;-69
2024/01/23 15:34:20;;;;;;;0.40;0.40;;;9.20;99.90;;;;;;4973228;28;20215;-69
2024/01/23 15:36:47;;;;;;;0.30;0.30;;;9.20;99.90;;;;;;4973868;28;20602;-68
2024/01/23 15:39:15;;;;;;;0.30;0.30;;;9.20;99.90;;;;;;4975051;28;20279;-69
2024/01/23 15:41:40;;;;;;;0.30;0.30;;;9.20;99.90;;;;;;4976261;28;20555;-69
2024/01/23 15:44:06;;;;;;;0.30;0.30;;;9.10;99.90;;;;;;4976124;28;20188;-69
2024/01/23 15:46:32;;;;;;;0.30;0.30;;;9.10;99.90;;;;;;4976090;28;20203;-69
2024/01/23 15:48:58;;;;;;;0.30;0.30;;;9.10;99.90;;;;;;4977914;28;20181;-69
2024/01/23 15:51:25;;;;;;;0.30;0.30;;;9.10;99.90;;;;;;4977531;28;20298;-69
2024/01/23 15:53:51;;;;;;;0.30;0.30;;;9.10;99.90;;;;;;4967810;28;20295;-68
2024/01/23 15:56:17;;;;;;;0.30;0.30;;;9.10;99.90;;;;;;4958397;28;20203;-68
2024/01/23 15:58:42;;;;;;;0.30;0.30;;;9.00;99.90;;;;;;4958949;29;20169;-69
2024/01/23 16:01:08;;;;;;;0.30;0.30;;;9.00;99.90;;;;;;4957359;29;20196;-69
2024/01/23 16:03:35;;;;;;;0.40;0.40;;;9.00;99.90;;;;;;4959526;28;20523;-68
2024/01/23 16:06:00;;;;;;;0.30;0.30;;;9.00;99.90;;;;;;4959296;28;20188;-69
2024/01/23 16:08:26;;;;;;;0.30;0.30;;;9.00;99.90;;;;;;4960025;28;20527;-69
2024/01/23 16:10:52;;;;;;;0.30;0.30;;;9.00;99.90;;;;;;4955471;29;20199;-69
2024/01/23 16:13:17;;;;;;;0.30;0.30;;;9.00;99.90;;;;;;4956809;28;20225;-67
2024/01/23 16:15:43;;;;;;;0.53;0.53;;;9.00;99.90;;;;;;4956055;29;20264;-69
2024/01/23 16:18:09;;;;;;;0.30;0.30;;;9.00;99.90;;;;;;4955433;29;20157;-69
2024/01/23 16:20:34;;;;;;;0.40;0.40;;;9.00;99.90;;;;;;4956763;29;20200;-68
2024/01/23 16:23:00;;;;;;;0.30;0.30;;;9.00;99.90;;;;;;4959260;28;20229;-70
2024/01/23 16:25:27;;;;;;;0.30;0.30;;;8.90;99.90;;;;;;4955267;29;20203;-71
2024/01/23 16:27:53;;;;;;;0.30;0.30;;;8.90;99.90;;;;;;4955480;29;20181;-71
2024/01/23 16:30:19;;;;;;;0.33;0.33;;;8.90;99.90;;;;;;4960662;29;20224;-72
2024/01/23 16:32:45;;;;;;;0.30;0.30;;;8.90;99.90;;;;;;4955960;29;20180;-71
2024/01/23 16:35:11;;;;;;;0.30;0.30;;;8.90;99.90;;;;;;4955936;28;20282;-70
2024/01/23 16:37:37;;;;;;;0.30;0.20;;;8.80;99.90;;;;;;4955596;28;20184;-72
2024/01/23 16:40:06;;;;;;;0.30;0.30;;;8.80;99.90;;;;;;4955873;28;20196;-68
2024/01/23 16:42:32;;;;;;;0.30;0.30;;;8.80;99.90;;;;;;4954483;29;20173;-69
2024/01/23 16:44:57;;;;;;;0.30;0.30;;;8.80;99.90;;;;;;4955908;29;20173;-72
2024/01/23 16:47:23;;;;;;;0.40;0.40;;;8.80;99.90;;;;;;4956940;29;20204;-70
2024/01/23 16:49:49;;;;;;;0.30;0.30;;;8.80;99.90;;;;;;4956337;28;20535;-72
2024/01/23 16:52:16;;;;;;;0.30;0.30;;;8.80;99.90;;;;;;4956538;29;20185;-73
2024/01/23 16:54:42;;;;;;;0.30;0.30;;;8.70;99.90;;;;;;4954828;28;20216;-72
2024/01/23 16:57:07;;;;;;;0.30;0.30;;;8.70;99.90;;;;;;4956451;28;20185;-72
2024/01/23 16:59:34;;;;;;;0.30;0.30;;;8.70;99.90;;;;;;4958604;28;20513;-71
2024/01/23 17:02:06;;;;;;;0.30;0.30;;;8.80;99.90;;;;;;4959674;28;20181;-69
2024/01/23 17:04:32;;;;;;;0.30;0.30;;;8.70;99.90;;;;;;4958920;28;20172;-69
2024/01/23 17:06:58;;;;;;;0.30;0.30;;;8.70;99.90;;;;;;4959003;28;20208;-71
2024/01/23 17:09:24;;;;;;;0.30;0.30;;;8.70;99.90;;;;;;4967039;28;20267;-69
2024/01/23 17:11:50;;;;;;;0.30;0.30;;;8.70;99.90;;;;;;4976915;28;20516;-73
2024/01/23 17:14:16;;;;;;;0.30;0.30;;;8.70;99.90;;;;;;4977435;28;20206;-73
2024/01/23 17:16:43;;;;;;;0.30;0.30;;;8.60;99.90;;;;;;4961263;28;20196;-65
2024/01/23 17:19:09;;;;;;;0.30;0.30;;;8.60;99.90;;;;;;4976885;28;20435;-64
2024/01/23 17:21:34;;;;;;;0.30;0.20;;;8.60;99.90;;;;;;4978274;28;20184;-69
2024/01/23 17:24:00;;;;;;;0.40;0.40;;;8.60;99.90;;;;;;4973205;28;20172;-69
2024/01/23 17:26:26;;;;;;;0.30;0.30;;;8.60;99.90;;;;;;4958407;28;20192;-68
2024/01/23 17:28:54;;;;;;;0.40;0.40;;;8.70;99.90;;;;;;4957740;29;20177;-69
2024/01/23 17:31:20;;;;;;;0.30;0.30;;;8.60;99.90;;;;;;4938087;29;20201;-70
2024/01/23 17:33:45;;;;;;;0.40;0.40;;;8.60;99.90;;;;;;4960262;28;20542;-68
2024/01/23 17:36:11;;;;;;;0.30;0.30;;;8.60;99.90;;;;;;4978165;28;20216;-69
2024/01/23 17:38:38;;;;;;;0.40;0.40;;;8.60;99.90;;;;;;4978952;28;20238;-69
2024/01/23 17:41:04;;;;;;;0.30;0.30;;;8.50;99.90;;;;;;4979383;28;20172;-69
2024/01/23 17:43:30;;;;;;;0.40;0.40;;;8.60;99.90;;;;;;4979061;28;20172;-70
2024/01/23 17:45:56;;;;;;;0.30;0.30;;;8.60;99.90;;;;;;4974600;28;20192;-70
2024/01/23 17:48:21;;;;;;;0.30;0.30;;;8.60;99.90;;;;;;4958227;28;20173;-72
2024/01/23 17:50:47;;;;;;;0.30;0.30;;;8.60;99.90;;;;;;4958094;29;20414;-69
2024/01/23 17:53:12;;;;;;;0.30;0.30;;;8.70;99.90;;;;;;4957801;29;20200;-71
2024/01/23 17:55:38;;;;;;;0.30;0.30;;;8.70;99.90;;;;;;4957366;29;20205;-70
2024/01/23 17:58:04;;;;;;;0.30;0.30;;;8.70;99.90;;;;;;4956651;28;20698;-68